Henefer, Utah
Current Conditions -  °F | °C
As of 6:42 AM on Sunday 23 Nov 2014 (Local Time) from KHIF Reporting Station
Light Snow Light Snow  
Wind Chill: 23°   Ceiling: 2300
Heat Index: 32°   Visibility: 6mi
Dew Point: 27°   Wind: 12mph
Humidity: 80%   Direction: 340°NNW
Pressure: 30.11"   Gusts: NA
Location:  41.02°N, 111.5°W
Report Text: KHIF 231342Z AUTO 34010KT 6SM -SN BKN023 OVC041 00/M03 A3011 RMK AO2 UPB1312E1332SNB1332 CIG 023V040
Loading
Personal Weather Stations






























Interactive Weather Map New forecast layout! Learn more

10-Day Weather Forecast

Advertisements
Track Severe Weather on mobile